createdAt,value
2022-12-05T00:01:43.736Z,5.10
2022-12-05T00:04:14.740Z,5.10
2022-12-05T00:06:43.051Z,5.10
2022-12-05T00:09:12.723Z,5.10
2022-12-05T00:11:44.817Z,5.10
2022-12-05T00:14:13.488Z,5.10
2022-12-05T00:16:43.616Z,5.10
2022-12-05T00:19:15.764Z,5.10
2022-12-05T00:24:15.375Z,5.10
2022-12-05T00:26:43.666Z,5.10
2022-12-05T00:29:12.683Z,5.10
2022-12-05T00:31:40.017Z,5.10
2022-12-05T00:36:36.220Z,5.10
2022-12-05T00:39:14.125Z,5.10
2022-12-05T00:41:42.849Z,5.10
2022-12-05T00:44:13.429Z,5.10
2022-12-05T00:46:40.969Z,5.10
2022-12-05T00:49:08.598Z,5.10
2022-12-05T00:51:41.156Z,5.10
2022-12-05T00:54:15.782Z,5.10
2022-12-05T00:56:44.574Z,5.10
2022-12-05T00:59:20.090Z,5.10
2022-12-05T01:01:50.636Z,5.10
2022-12-05T01:04:23.296Z,5.10
2022-12-05T01:06:55.833Z,5.10
2022-12-05T01:09:23.396Z,5.10
2022-12-05T01:11:51.257Z,5.10
2022-12-05T01:14:23.822Z,5.10
2022-12-05T01:16:55.087Z,5.10
2022-12-05T01:19:31.264Z,5.10
2022-12-05T01:21:59.336Z,5.10
2022-12-05T01:24:28.830Z,5.10
2022-12-05T01:26:57.071Z,5.10
2022-12-05T01:29:25.433Z,5.10
2022-12-05T01:31:53.876Z,5.10
2022-12-05T01:34:21.594Z,5.10
2022-12-05T01:39:16.841Z,5.10
2022-12-05T01:41:49.349Z,5.10
2022-12-05T01:44:16.133Z,5.10
2022-12-05T01:46:50.650Z,5.10
2022-12-05T01:49:25.777Z,5.10
2022-12-05T01:52:02.536Z,5.10
2022-12-05T01:57:05.495Z,5.10
2022-12-05T01:59:39.777Z,5.10
2022-12-05T02:02:08.968Z,5.00
2022-12-05T02:04:48.871Z,4.90
2022-12-05T02:07:16.246Z,4.90
2022-12-05T02:12:10.674Z,4.90
2022-12-05T02:15:24.550Z,4.80
2022-12-05T02:18:32.035Z,4.80
2022-12-05T02:21:37.515Z,4.80
2022-12-05T02:24:44.795Z,4.80
2022-12-05T02:27:42.659Z,4.70
2022-12-05T02:30:19.156Z,4.70
2022-12-05T02:33:19.242Z,4.70
2022-12-05T02:36:16.630Z,4.70
2022-12-05T02:39:10.435Z,4.60
2022-12-05T02:42:00.070Z,4.70
2022-12-05T02:44:55.819Z,4.60
2022-12-05T02:47:31.222Z,4.60
2022-12-05T02:49:59.805Z,4.60
2022-12-05T02:52:30.307Z,4.60
2022-12-05T02:57:25.351Z,4.50
2022-12-05T02:59:52.396Z,4.50
2022-12-05T03:02:41.202Z,4.50
2022-12-05T03:05:40.723Z,4.40
2022-12-05T03:08:16.287Z,4.40
2022-12-05T03:10:45.885Z,4.40
2022-12-05T03:13:27.006Z,4.40
2022-12-05T03:16:03.960Z,4.40
2022-12-05T03:18:40.755Z,4.40
2022-12-05T03:21:37.360Z,4.40
2022-12-05T03:24:10.100Z,4.30
2022-12-05T03:27:25.794Z,4.30
2022-12-05T03:30:06.968Z,4.30
2022-12-05T03:32:43.176Z,4.20
2022-12-05T03:35:31.137Z,4.20
2022-12-05T03:38:21.632Z,4.20
2022-12-05T03:41:12.999Z,4.20
2022-12-05T03:44:13.170Z,4.10
2022-12-05T03:47:04.296Z,4.10
2022-12-05T03:49:41.823Z,4.10
2022-12-05T03:52:19.368Z,4.10
2022-12-05T03:55:09.998Z,4.00
2022-12-05T03:57:51.857Z,4.10
2022-12-05T04:00:23.397Z,4.10
2022-12-05T04:03:00.251Z,4.00
2022-12-05T04:05:44.337Z,4.00
2022-12-05T04:08:27.625Z,4.00
2022-12-05T04:11:02.586Z,4.00
2022-12-05T04:13:37.274Z,3.90
2022-12-05T04:16:36.109Z,3.90
2022-12-05T04:19:59.479Z,3.90
2022-12-05T04:22:28.057Z,3.80
2022-12-05T04:25:18.361Z,3.80
2022-12-05T04:28:15.542Z,3.80
2022-12-05T04:31:06.974Z,3.80
2022-12-05T04:33:54.114Z,3.80
2022-12-05T04:36:43.988Z,3.80
2022-12-05T04:39:31.369Z,3.80
2022-12-05T04:42:09.509Z,3.70
2022-12-05T04:44:48.005Z,3.70
2022-12-05T04:47:19.669Z,3.70
2022-12-05T04:49:53.541Z,3.70
2022-12-05T04:52:22.545Z,3.70
2022-12-05T04:55:08.618Z,3.60
2022-12-05T04:58:08.102Z,3.60
2022-12-05T05:01:23.381Z,3.60
2022-12-05T05:04:08.322Z,3.60
2022-12-05T05:06:40.353Z,3.60
2022-12-05T05:09:07.958Z,3.60
2022-12-05T05:11:36.881Z,3.60
2022-12-05T05:14:04.961Z,3.60
2022-12-05T05:16:41.363Z,3.50
2022-12-05T05:19:11.931Z,3.60
2022-12-05T05:21:42.462Z,3.60
2022-12-05T05:24:11.823Z,3.60
2022-12-05T05:26:42.862Z,3.60
2022-12-05T05:29:11.962Z,3.60
2022-12-05T05:31:41.796Z,3.60
2022-12-05T05:34:10.948Z,3.60
2022-12-05T05:36:39.333Z,3.60
2022-12-05T05:39:12.366Z,3.60
2022-12-05T05:41:39.311Z,3.50
2022-12-05T05:46:37.204Z,3.50
2022-12-05T05:49:05.210Z,3.50
2022-12-05T05:51:32.582Z,3.50
2022-12-05T05:54:00.636Z,3.50
2022-12-05T05:56:29.104Z,3.50
2022-12-05T05:59:03.051Z,3.50
2022-12-05T06:01:31.264Z,3.40
2022-12-05T06:03:59.274Z,3.50
2022-12-05T06:06:26.876Z,3.40
2022-12-05T06:11:28.716Z,3.40
2022-12-05T06:14:00.919Z,3.40
2022-12-05T06:23:53.805Z,3.40
2022-12-05T06:26:22.492Z,3.30
2022-12-05T06:31:23.121Z,3.30
2022-12-05T06:33:50.176Z,3.30
2022-12-05T06:36:21.872Z,3.30
2022-12-05T06:38:48.973Z,3.30
2022-12-05T06:41:20.173Z,3.30
2022-12-05T06:43:47.408Z,3.20
2022-12-05T06:46:15.962Z,3.30
2022-12-05T06:48:43.163Z,3.20
2022-12-05T06:51:14.952Z,3.20
2022-12-05T06:56:17.505Z,3.20
2022-12-05T06:58:50.069Z,3.20
2022-12-05T07:01:39.077Z,3.10
2022-12-05T07:04:15.501Z,3.10
2022-12-05T07:06:50.267Z,3.10
2022-12-05T07:09:45.782Z,3.20
2022-12-05T07:12:16.731Z,3.10
2022-12-05T07:17:19.666Z,3.10
2022-12-05T07:19:52.252Z,3.20
2022-12-05T07:22:22.375Z,3.10
2022-12-05T07:24:53.049Z,3.10
2022-12-05T07:27:26.583Z,3.20
2022-12-05T07:37:22.250Z,3.20
2022-12-05T07:42:17.623Z,3.20
2022-12-05T07:52:06.846Z,3.20
2022-12-05T08:01:56.319Z,3.20
2022-12-05T08:19:16.917Z,3.30
2022-12-05T08:24:12.126Z,3.30
2022-12-05T08:26:40.027Z,3.30
2022-12-05T08:29:16.157Z,3.30
2022-12-05T08:31:48.651Z,3.30
2022-12-05T08:34:19.862Z,3.30
2022-12-05T08:36:47.391Z,3.30
2022-12-05T08:39:18.222Z,3.40
2022-12-05T08:41:47.650Z,3.30
2022-12-05T08:44:16.956Z,3.30
2022-12-05T08:46:48.516Z,3.30
2022-12-05T08:49:16.993Z,3.30
2022-12-05T08:54:12.227Z,3.40
2022-12-05T08:56:39.543Z,3.40
2022-12-05T08:59:07.782Z,3.40
2022-12-05T09:03:56.515Z,3.40
2022-12-05T09:06:25.744Z,3.50
2022-12-05T09:08:59.651Z,3.50
2022-12-05T09:11:33.812Z,3.50
2022-12-05T09:14:02.415Z,3.50
2022-12-05T09:16:38.005Z,3.50
2022-12-05T09:19:17.337Z,3.50
2022-12-05T09:21:45.011Z,3.50
2022-12-05T09:24:14.125Z,3.60
2022-12-05T09:26:41.965Z,3.50
2022-12-05T09:29:16.154Z,3.60
2022-12-05T09:34:15.015Z,3.60
2022-12-05T09:39:11.545Z,3.70
2022-12-05T09:42:36.869Z,3.70
2022-12-05T09:45:30.262Z,3.70
2022-12-05T09:48:16.579Z,3.60
2022-12-05T09:51:00.649Z,3.70
2022-12-05T09:53:41.480Z,3.80
2022-12-05T09:56:29.776Z,3.80
2022-12-05T09:59:00.834Z,3.80
2022-12-05T10:01:54.320Z,3.70
2022-12-05T10:04:49.050Z,3.80
2022-12-05T10:07:47.601Z,3.90
2022-12-05T10:10:49.018Z,3.90
2022-12-05T10:14:08.988Z,3.90
2022-12-05T10:16:59.102Z,3.90
2022-12-05T10:19:35.357Z,4.00
2022-12-05T10:22:25.817Z,4.00
2022-12-05T10:25:01.695Z,4.00
2022-12-05T10:27:41.239Z,4.00
2022-12-05T10:30:23.773Z,4.10
2022-12-05T10:33:07.992Z,4.00
2022-12-05T10:35:40.692Z,4.10
2022-12-05T10:38:24.117Z,4.10
2022-12-05T10:40:58.055Z,4.10
2022-12-05T10:43:37.863Z,4.10
2022-12-05T10:46:07.803Z,4.10
2022-12-05T10:48:40.697Z,4.20
2022-12-05T10:51:18.747Z,4.20
2022-12-05T10:53:50.733Z,4.20
2022-12-05T10:56:49.053Z,4.20
2022-12-05T10:59:25.142Z,4.20
2022-12-05T11:01:58.234Z,4.10
2022-12-05T11:04:32.699Z,4.10
2022-12-05T11:07:04.532Z,4.00
2022-12-05T11:09:38.996Z,4.00
2022-12-05T11:12:29.600Z,4.00
2022-12-05T11:15:25.368Z,4.00
2022-12-05T11:17:57.905Z,4.00
2022-12-05T11:22:56.411Z,3.90
2022-12-05T11:25:37.373Z,3.90
2022-12-05T11:28:26.001Z,3.90
2022-12-05T11:31:14.229Z,3.90
2022-12-05T11:36:20.856Z,4.00
2022-12-05T11:47:08.554Z,3.90
2022-12-05T11:50:15.899Z,3.80
2022-12-05T11:53:12.113Z,3.80
2022-12-05T11:56:12.159Z,3.90
2022-12-05T11:59:30.927Z,3.80
2022-12-05T12:02:28.710Z,3.80
2022-12-05T12:06:18.221Z,3.80
2022-12-05T12:09:10.185Z,3.80
2022-12-05T12:12:11.031Z,3.80
2022-12-05T12:15:19.800Z,3.80
2022-12-05T12:20:52.056Z,3.80
2022-12-05T12:23:51.776Z,3.90
2022-12-05T12:26:55.813Z,3.80
2022-12-05T12:30:01.620Z,3.70
2022-12-05T12:33:10.273Z,3.70
2022-12-05T12:35:57.003Z,3.70
2022-12-05T12:38:48.196Z,3.70
2022-12-05T12:42:00.005Z,3.70
2022-12-05T12:45:06.268Z,3.70
2022-12-05T12:48:29.516Z,3.70
2022-12-05T12:51:01.180Z,3.70
2022-12-05T12:54:04.399Z,3.80
2022-12-05T12:57:13.892Z,3.80
2022-12-05T12:59:53.800Z,3.80
2022-12-05T13:02:42.484Z,3.80
2022-12-05T13:05:37.979Z,3.80
2022-12-05T13:08:28.497Z,3.80
2022-12-05T13:10:59.529Z,3.90
2022-12-05T13:13:36.552Z,3.90
2022-12-05T13:16:08.254Z,3.80
2022-12-05T13:18:36.139Z,3.90
2022-12-05T13:21:10.149Z,3.80
2022-12-05T13:23:49.101Z,3.80
2022-12-05T13:26:17.668Z,3.80
2022-12-05T13:28:50.273Z,3.90
2022-12-05T13:31:19.229Z,3.90
2022-12-05T13:33:50.675Z,4.00
2022-12-05T13:36:41.970Z,4.00
2022-12-05T13:39:33.720Z,4.00
2022-12-05T13:42:16.401Z,4.00
2022-12-05T13:44:50.777Z,4.00
2022-12-05T13:48:06.956Z,4.10
2022-12-05T13:53:44.042Z,4.20
2022-12-05T13:56:14.014Z,4.20
2022-12-05T13:58:52.538Z,4.20
2022-12-05T14:01:55.266Z,4.20
2022-12-05T14:04:50.625Z,4.30
2022-12-05T14:07:40.954Z,4.30
2022-12-05T14:10:14.598Z,4.30
2022-12-05T14:13:30.086Z,4.30
2022-12-05T14:16:26.112Z,4.30
2022-12-05T14:19:24.258Z,4.30
2022-12-05T14:22:44.108Z,4.30
2022-12-05T14:26:09.290Z,4.30
2022-12-05T14:29:35.070Z,4.30
2022-12-05T14:32:31.550Z,4.20
2022-12-05T14:35:01.535Z,4.20
2022-12-05T14:37:46.889Z,4.30
2022-12-05T14:40:40.956Z,4.30
2022-12-05T14:43:30.739Z,4.30
2022-12-05T14:46:07.877Z,4.30
2022-12-05T14:48:47.795Z,4.20
2022-12-05T14:51:30.310Z,4.20
2022-12-05T14:54:11.998Z,4.20
2022-12-05T14:56:46.385Z,4.20
2022-12-05T14:59:32.479Z,4.20
2022-12-05T15:02:03.615Z,4.20
2022-12-05T15:05:01.125Z,4.20
2022-12-05T15:07:38.506Z,4.20
2022-12-05T15:10:41.687Z,4.20
2022-12-05T15:13:17.864Z,4.20
2022-12-05T15:15:59.280Z,4.20
2022-12-05T15:18:50.621Z,4.20
2022-12-05T15:21:36.394Z,4.20
2022-12-05T15:24:12.421Z,4.20
2022-12-05T15:26:52.516Z,4.20
2022-12-05T15:29:25.546Z,4.20
2022-12-05T15:32:10.861Z,4.20
2022-12-05T15:35:01.563Z,4.20
2022-12-05T15:37:39.745Z,4.20
2022-12-05T15:42:57.553Z,4.20
2022-12-05T15:45:29.274Z,4.20
2022-12-05T15:48:08.405Z,4.20
2022-12-05T15:50:52.860Z,4.20
2022-12-05T15:53:38.349Z,4.20
2022-12-05T15:56:29.868Z,4.20
2022-12-05T15:59:13.362Z,4.20
2022-12-05T16:01:55.447Z,4.20
2022-12-05T16:04:40.926Z,4.20
2022-12-05T16:07:11.853Z,4.20
2022-12-05T16:09:43.690Z,4.20
2022-12-05T16:12:39.759Z,4.20
2022-12-05T16:15:20.589Z,4.20
2022-12-05T16:17:55.371Z,4.20
2022-12-05T16:20:40.378Z,4.20
2022-12-05T16:23:27.153Z,4.30
2022-12-05T16:25:54.329Z,4.30
2022-12-05T16:28:22.878Z,4.20
2022-12-05T16:31:03.132Z,4.20
2022-12-05T16:33:32.147Z,4.30
2022-12-05T16:36:13.208Z,4.30
2022-12-05T16:38:43.039Z,4.30
2022-12-05T16:41:12.545Z,4.30
2022-12-05T16:43:39.411Z,4.30
2022-12-05T16:46:42.837Z,4.30
2022-12-05T16:49:29.818Z,4.20
2022-12-05T16:52:08.938Z,4.20
2022-12-05T16:54:36.360Z,4.20
2022-12-05T16:57:04.967Z,4.20
2022-12-05T16:59:42.023Z,4.20
2022-12-05T17:02:17.458Z,4.20
2022-12-05T17:04:46.713Z,4.20
2022-12-05T17:07:13.687Z,4.20
2022-12-05T17:12:22.813Z,4.10
2022-12-05T17:14:50.295Z,4.00
2022-12-05T17:17:18.165Z,4.00
2022-12-05T17:22:15.534Z,3.90
2022-12-05T17:24:42.743Z,3.90
2022-12-05T17:27:12.530Z,3.80
2022-12-05T17:29:39.528Z,3.80
2022-12-05T17:34:34.078Z,3.70
2022-12-05T17:37:01.040Z,3.70
2022-12-05T17:39:28.827Z,3.70
2022-12-05T17:46:51.197Z,3.70
2022-12-05T17:49:18.761Z,3.70
2022-12-05T17:54:33.439Z,3.60
2022-12-05T17:57:00.509Z,3.60
2022-12-05T17:59:27.525Z,3.60
2022-12-05T18:01:54.491Z,3.60
2022-12-05T18:09:36.367Z,3.60
2022-12-05T18:12:03.657Z,3.60
2022-12-05T18:14:31.187Z,3.50
2022-12-05T18:19:25.560Z,3.50
2022-12-05T18:21:52.610Z,3.50
2022-12-05T18:24:19.564Z,3.50
2022-12-05T18:29:13.992Z,3.40
2022-12-05T18:31:42.674Z,3.40
2022-12-05T18:36:37.089Z,3.40
2022-12-05T18:39:04.282Z,3.40
2022-12-05T18:41:31.377Z,3.40
2022-12-05T18:43:58.420Z,3.40
2022-12-05T18:46:25.510Z,3.40
2022-12-05T18:48:52.568Z,3.40
2022-12-05T18:51:23.532Z,3.40
2022-12-05T18:53:53.752Z,3.40
2022-12-05T18:56:35.787Z,3.40
2022-12-05T18:59:07.797Z,3.30
2022-12-05T19:01:39.381Z,3.40
2022-12-05T19:06:37.026Z,3.30
2022-12-05T19:09:12.390Z,3.30
2022-12-05T19:11:48.354Z,3.30
2022-12-05T19:14:19.261Z,3.30
2022-12-05T19:16:56.301Z,3.40
2022-12-05T19:19:25.934Z,3.30
2022-12-05T19:21:53.473Z,3.30
2022-12-05T19:24:20.579Z,3.30
2022-12-05T19:26:48.101Z,3.30
2022-12-05T19:29:16.834Z,3.30
2022-12-05T19:34:12.621Z,3.30
2022-12-05T19:36:44.111Z,3.30
2022-12-05T19:39:17.259Z,3.30
2022-12-05T19:44:14.383Z,3.30
2022-12-05T19:46:41.914Z,3.30
2022-12-05T19:49:13.318Z,3.30
2022-12-05T19:51:41.057Z,3.30
2022-12-05T19:54:10.870Z,3.30
2022-12-05T19:56:39.295Z,3.30
2022-12-05T19:59:06.878Z,3.30
2022-12-05T20:01:40.490Z,3.30
2022-12-05T20:04:15.306Z,3.30
2022-12-05T20:06:47.023Z,3.20
2022-12-05T20:09:17.785Z,3.20
2022-12-05T20:11:54.537Z,3.30
2022-12-05T20:14:24.834Z,3.30
2022-12-05T20:16:52.888Z,3.30
2022-12-05T20:19:20.140Z,3.30
2022-12-05T20:24:14.822Z,3.30
2022-12-05T20:26:45.064Z,3.30
2022-12-05T20:29:12.357Z,3.30
2022-12-05T20:31:42.656Z,3.30
2022-12-05T20:34:15.008Z,3.30
2022-12-05T20:36:42.777Z,3.30
2022-12-05T20:39:17.655Z,3.30
2022-12-05T20:41:45.258Z,3.30
2022-12-05T20:44:15.991Z,3.30
2022-12-05T20:46:43.211Z,3.30
2022-12-05T20:49:13.747Z,3.30
2022-12-05T20:51:46.356Z,3.30
2022-12-05T20:54:16.610Z,3.30
2022-12-05T20:56:44.138Z,3.30
2022-12-05T20:59:13.269Z,3.40
2022-12-05T21:04:09.465Z,3.40
2022-12-05T21:06:43.620Z,3.40
2022-12-05T21:09:18.217Z,3.30
2022-12-05T21:11:45.829Z,3.30
2022-12-05T21:14:13.036Z,3.30
2022-12-05T21:16:40.434Z,3.30
2022-12-05T21:19:08.633Z,3.30
2022-12-05T21:21:35.735Z,3.40
2022-12-05T21:24:04.813Z,3.40
2022-12-05T21:26:34.533Z,3.40
2022-12-05T21:29:04.415Z,3.40
2022-12-05T21:31:40.400Z,3.40
2022-12-05T21:34:19.237Z,3.40
2022-12-05T21:36:47.488Z,3.30
2022-12-05T21:39:15.470Z,3.40
2022-12-05T21:41:42.575Z,3.40
2022-12-05T21:44:09.661Z,3.30
2022-12-05T21:46:36.770Z,3.30
2022-12-05T21:49:03.857Z,3.20
2022-12-05T21:51:31.545Z,3.10
2022-12-05T21:53:58.577Z,3.10
2022-12-05T21:58:53.383Z,3.10
2022-12-05T22:01:27.581Z,3.10
2022-12-05T22:04:01.424Z,3.10
2022-12-05T22:06:33.305Z,3.10
2022-12-05T22:13:55.613Z,2.90
2022-12-05T22:16:26.515Z,2.80
2022-12-05T22:21:25.205Z,2.60
2022-12-05T22:26:25.596Z,2.40
2022-12-05T22:28:55.196Z,2.30
2022-12-05T22:31:24.053Z,2.30
2022-12-05T22:36:19.706Z,2.20
2022-12-05T22:38:48.612Z,2.10
2022-12-05T22:41:26.641Z,2.10
2022-12-05T22:43:58.601Z,2.10
2022-12-05T22:46:28.422Z,2.00
2022-12-05T22:51:24.137Z,2.00
2022-12-05T22:53:53.222Z,2.00
2022-12-05T22:56:23.472Z,2.00
2022-12-05T22:58:59.213Z,2.00
2022-12-05T23:01:32.674Z,1.90
2022-12-05T23:04:01.445Z,1.90
2022-12-05T23:06:31.213Z,1.90
2022-12-05T23:08:59.508Z,1.80
2022-12-05T23:11:29.677Z,1.90
2022-12-05T23:14:01.615Z,2.00
2022-12-05T23:16:32.681Z,2.00
2022-12-05T23:19:05.070Z,2.10
2022-12-05T23:21:42.481Z,2.10
2022-12-05T23:24:12.310Z,2.20
2022-12-05T23:26:45.665Z,2.20
2022-12-05T23:29:14.343Z,2.30
2022-12-05T23:31:42.520Z,2.40
2022-12-05T23:39:05.952Z,2.50
2022-12-05T23:41:33.321Z,2.50
2022-12-05T23:44:00.502Z,2.50
2022-12-05T23:46:29.217Z,2.60
2022-12-05T23:51:28.724Z,2.60
2022-12-05T23:54:00.555Z,2.60
2022-12-05T23:56:31.711Z,2.60
2022-12-05T23:58:59.979Z,2.60
